sensor_id;sensor_type;location;lat;lon;timestamp;P1;durP1;ratioP1;P2;durP2;ratioP2
5167;SDS011;2603;48.918;8.980;2023-01-31T00:01:20;22.93;;;5.90;;
5167;SDS011;2603;48.918;8.980;2023-01-31T00:03:51;14.00;;;7.17;;
5167;SDS011;2603;48.918;8.980;2023-01-31T00:06:20;14.73;;;6.37;;
5167;SDS011;2603;48.918;8.980;2023-01-31T00:08:48;14.53;;;5.80;;
5167;SDS011;2603;48.918;8.980;2023-01-31T00:11:16;13.47;;;6.00;;
5167;SDS011;2603;48.918;8.980;2023-01-31T00:13:45;18.93;;;5.00;;
5167;SDS011;2603;48.918;8.980;2023-01-31T00:16:12;10.73;;;5.40;;
5167;SDS011;2603;48.918;8.980;2023-01-31T00:18:40;14.93;;;5.77;;
5167;SDS011;2603;48.918;8.980;2023-01-31T00:21:07;9.73;;;5.50;;
5167;SDS011;2603;48.918;8.980;2023-01-31T00:23:35;9.70;;;5.80;;
5167;SDS011;2603;48.918;8.980;2023-01-31T00:26:11;13.00;;;5.83;;
5167;SDS011;2603;48.918;8.980;2023-01-31T00:28:39;10.20;;;5.43;;
5167;SDS011;2603;48.918;8.980;2023-01-31T00:31:08;12.47;;;5.43;;
5167;SDS011;2603;48.918;8.980;2023-01-31T00:33:36;8.00;;;4.20;;
5167;SDS011;2603;48.918;8.980;2023-01-31T00:36:04;14.90;;;5.33;;
5167;SDS011;2603;48.918;8.980;2023-01-31T00:38:31;10.80;;;4.73;;
5167;SDS011;2603;48.918;8.980;2023-01-31T00:40:58;7.33;;;4.97;;
5167;SDS011;2603;48.918;8.980;2023-01-31T00:43:25;13.83;;;6.00;;
5167;SDS011;2603;48.918;8.980;2023-01-31T00:45:51;12.70;;;5.47;;
5167;SDS011;2603;48.918;8.980;2023-01-31T00:48:19;11.33;;;4.70;;
5167;SDS011;2603;48.918;8.980;2023-01-31T00:50:46;18.63;;;6.10;;
5167;SDS011;2603;48.918;8.980;2023-01-31T00:53:13;13.43;;;5.20;;
5167;SDS011;2603;48.918;8.980;2023-01-31T00:55:41;12.90;;;4.60;;
5167;SDS011;2603;48.918;8.980;2023-01-31T00:58:08;11.87;;;5.47;;
5167;SDS011;2603;48.918;8.980;2023-01-31T01:00:35;17.57;;;4.90;;
5167;SDS011;2603;48.918;8.980;2023-01-31T01:03:02;19.17;;;6.27;;
5167;SDS011;2603;48.918;8.980;2023-01-31T01:05:30;12.60;;;4.43;;
5167;SDS011;2603;48.918;8.980;2023-01-31T01:07:57;10.53;;;4.23;;
5167;SDS011;2603;48.918;8.980;2023-01-31T01:10:23;11.60;;;4.30;;
5167;SDS011;2603;48.918;8.980;2023-01-31T01:12:50;18.83;;;4.67;;
5167;SDS011;2603;48.918;8.980;2023-01-31T01:15:16;10.30;;;4.33;;
5167;SDS011;2603;48.918;8.980;2023-01-31T01:17:43;16.10;;;4.73;;
5167;SDS011;2603;48.918;8.980;2023-01-31T01:20:10;9.33;;;4.73;;
5167;SDS011;2603;48.918;8.980;2023-01-31T01:22:38;13.57;;;5.20;;
5167;SDS011;2603;48.918;8.980;2023-01-31T01:25:07;12.50;;;5.80;;
5167;SDS011;2603;48.918;8.980;2023-01-31T01:27:34;10.20;;;5.67;;
5167;SDS011;2603;48.918;8.980;2023-01-31T01:30:01;12.50;;;6.03;;
5167;SDS011;2603;48.918;8.980;2023-01-31T01:32:28;13.63;;;6.00;;
5167;SDS011;2603;48.918;8.980;2023-01-31T01:34:55;12.33;;;5.77;;
5167;SDS011;2603;48.918;8.980;2023-01-31T01:37:21;11.17;;;5.30;;
5167;SDS011;2603;48.918;8.980;2023-01-31T01:39:50;13.70;;;5.67;;
5167;SDS011;2603;48.918;8.980;2023-01-31T01:42:18;18.57;;;5.90;;
5167;SDS011;2603;48.918;8.980;2023-01-31T01:44:47;13.83;;;4.97;;
5167;SDS011;2603;48.918;8.980;2023-01-31T01:47:20;12.63;;;6.30;;
5167;SDS011;2603;48.918;8.980;2023-01-31T01:49:53;18.90;;;5.70;;
5167;SDS011;2603;48.918;8.980;2023-01-31T01:52:21;17.20;;;6.53;;
5167;SDS011;2603;48.918;8.980;2023-01-31T01:54:52;19.57;;;7.23;;
5167;SDS011;2603;48.918;8.980;2023-01-31T01:57:24;14.33;;;6.70;;
5167;SDS011;2603;48.918;8.980;2023-01-31T02:00:00;15.17;;;6.83;;
5167;SDS011;2603;48.918;8.980;2023-01-31T02:02:39;25.03;;;8.77;;
5167;SDS011;2603;48.918;8.980;2023-01-31T02:05:07;17.07;;;7.47;;
5167;SDS011;2603;48.918;8.980;2023-01-31T02:07:34;17.43;;;7.13;;
5167;SDS011;2603;48.918;8.980;2023-01-31T02:10:04;18.93;;;7.60;;
5167;SDS011;2603;48.918;8.980;2023-01-31T02:12:32;14.83;;;6.80;;
5167;SDS011;2603;48.918;8.980;2023-01-31T02:14:59;15.43;;;7.53;;
5167;SDS011;2603;48.918;8.980;2023-01-31T02:17:26;15.10;;;6.77;;
5167;SDS011;2603;48.918;8.980;2023-01-31T02:20:00;21.63;;;7.83;;
5167;SDS011;2603;48.918;8.980;2023-01-31T02:22:32;17.43;;;8.33;;
5167;SDS011;2603;48.918;8.980;2023-01-31T02:31:12;26.63;;;7.90;;
5167;SDS011;2603;48.918;8.980;2023-01-31T02:34:08;21.63;;;7.60;;
5167;SDS011;2603;48.918;8.980;2023-01-31T02:36:41;12.57;;;7.77;;
5167;SDS011;2603;48.918;8.980;2023-01-31T02:39:20;18.33;;;7.60;;
5167;SDS011;2603;48.918;8.980;2023-01-31T02:41:53;16.10;;;8.30;;
5167;SDS011;2603;48.918;8.980;2023-01-31T02:44:24;22.50;;;8.00;;
5167;SDS011;2603;48.918;8.980;2023-01-31T02:47:13;18.03;;;9.20;;
5167;SDS011;2603;48.918;8.980;2023-01-31T02:49:47;21.93;;;8.43;;
5167;SDS011;2603;48.918;8.980;2023-01-31T02:52:19;15.67;;;7.57;;
5167;SDS011;2603;48.918;8.980;2023-01-31T02:54:56;21.83;;;7.90;;
5167;SDS011;2603;48.918;8.980;2023-01-31T02:57:45;19.13;;;7.33;;
5167;SDS011;2603;48.918;8.980;2023-01-31T03:00:11;25.40;;;7.73;;
5167;SDS011;2603;48.918;8.980;2023-01-31T03:02:40;19.93;;;6.90;;
5167;SDS011;2603;48.918;8.980;2023-01-31T03:05:09;16.40;;;8.47;;
5167;SDS011;2603;48.918;8.980;2023-01-31T03:07:40;19.67;;;7.93;;
5167;SDS011;2603;48.918;8.980;2023-01-31T03:13:10;24.60;;;7.40;;
5167;SDS011;2603;48.918;8.980;2023-01-31T03:15:59;14.37;;;7.43;;
5167;SDS011;2603;48.918;8.980;2023-01-31T03:18:51;15.53;;;7.60;;
5167;SDS011;2603;48.918;8.980;2023-01-31T03:21:23;18.10;;;7.60;;
5167;SDS011;2603;48.918;8.980;2023-01-31T03:23:52;18.00;;;8.93;;
5167;SDS011;2603;48.918;8.980;2023-01-31T03:26:20;18.77;;;8.77;;
5167;SDS011;2603;48.918;8.980;2023-01-31T03:28:47;19.27;;;8.07;;
5167;SDS011;2603;48.918;8.980;2023-01-31T03:31:20;20.93;;;7.47;;
5167;SDS011;2603;48.918;8.980;2023-01-31T03:33:50;15.17;;;7.40;;
5167;SDS011;2603;48.918;8.980;2023-01-31T03:36:23;21.70;;;7.20;;
5167;SDS011;2603;48.918;8.980;2023-01-31T03:39:03;20.03;;;8.20;;
5167;SDS011;2603;48.918;8.980;2023-01-31T03:41:39;19.03;;;9.37;;
5167;SDS011;2603;48.918;8.980;2023-01-31T03:44:13;18.07;;;7.70;;
5167;SDS011;2603;48.918;8.980;2023-01-31T03:46:42;15.83;;;8.10;;
5167;SDS011;2603;48.918;8.980;2023-01-31T03:49:12;20.17;;;8.10;;
5167;SDS011;2603;48.918;8.980;2023-01-31T03:51:43;34.40;;;8.80;;
5167;SDS011;2603;48.918;8.980;2023-01-31T03:54:12;31.63;;;9.83;;
5167;SDS011;2603;48.918;8.980;2023-01-31T03:56:43;17.87;;;8.57;;
5167;SDS011;2603;48.918;8.980;2023-01-31T03:59:12;17.27;;;9.37;;
5167;SDS011;2603;48.918;8.980;2023-01-31T04:01:42;19.80;;;10.20;;
5167;SDS011;2603;48.918;8.980;2023-01-31T04:04:13;20.90;;;8.57;;
5167;SDS011;2603;48.918;8.980;2023-01-31T04:06:44;28.87;;;9.87;;
5167;SDS011;2603;48.918;8.980;2023-01-31T04:09:10;21.90;;;8.90;;
5167;SDS011;2603;48.918;8.980;2023-01-31T04:11:38;27.33;;;8.87;;
5167;SDS011;2603;48.918;8.980;2023-01-31T04:14:05;29.93;;;11.43;;
5167;SDS011;2603;48.918;8.980;2023-01-31T04:16:32;20.07;;;9.40;;
5167;SDS011;2603;48.918;8.980;2023-01-31T04:18:59;24.50;;;10.03;;
5167;SDS011;2603;48.918;8.980;2023-01-31T04:21:26;22.33;;;9.87;;
5167;SDS011;2603;48.918;8.980;2023-01-31T04:23:54;17.07;;;9.63;;
5167;SDS011;2603;48.918;8.980;2023-01-31T04:26:20;23.17;;;11.03;;
5167;SDS011;2603;48.918;8.980;2023-01-31T04:28:47;33.50;;;10.60;;
5167;SDS011;2603;48.918;8.980;2023-01-31T04:31:13;25.80;;;8.70;;
5167;SDS011;2603;48.918;8.980;2023-01-31T04:33:40;22.17;;;9.73;;
5167;SDS011;2603;48.918;8.980;2023-01-31T04:36:07;28.33;;;10.53;;
5167;SDS011;2603;48.918;8.980;2023-01-31T04:38:34;31.17;;;10.60;;
5167;SDS011;2603;48.918;8.980;2023-01-31T04:41:02;22.93;;;8.73;;
5167;SDS011;2603;48.918;8.980;2023-01-31T04:43:29;28.63;;;10.80;;
5167;SDS011;2603;48.918;8.980;2023-01-31T04:45:56;20.03;;;9.53;;
5167;SDS011;2603;48.918;8.980;2023-01-31T04:48:23;16.07;;;8.80;;
5167;SDS011;2603;48.918;8.980;2023-01-31T04:50:49;32.60;;;11.47;;
5167;SDS011;2603;48.918;8.980;2023-01-31T04:53:16;24.03;;;11.07;;
5167;SDS011;2603;48.918;8.980;2023-01-31T04:55:42;21.03;;;9.07;;
5167;SDS011;2603;48.918;8.980;2023-01-31T04:58:10;24.53;;;10.33;;
5167;SDS011;2603;48.918;8.980;2023-01-31T05:00:37;27.37;;;10.20;;
5167;SDS011;2603;48.918;8.980;2023-01-31T05:03:03;19.73;;;10.23;;
5167;SDS011;2603;48.918;8.980;2023-01-31T05:05:31;29.63;;;10.80;;
5167;SDS011;2603;48.918;8.980;2023-01-31T05:07:57;21.90;;;10.30;;
5167;SDS011;2603;48.918;8.980;2023-01-31T05:10:24;33.23;;;11.10;;
5167;SDS011;2603;48.918;8.980;2023-01-31T05:12:51;30.87;;;11.70;;
5167;SDS011;2603;48.918;8.980;2023-01-31T05:15:18;26.87;;;10.93;;
5167;SDS011;2603;48.918;8.980;2023-01-31T05:17:50;27.47;;;11.30;;
5167;SDS011;2603;48.918;8.980;2023-01-31T05:20:17;34.37;;;12.80;;
5167;SDS011;2603;48.918;8.980;2023-01-31T05:22:45;27.57;;;12.63;;
5167;SDS011;2603;48.918;8.980;2023-01-31T05:25:12;29.67;;;11.60;;
5167;SDS011;2603;48.918;8.980;2023-01-31T05:27:38;25.03;;;10.70;;
5167;SDS011;2603;48.918;8.980;2023-01-31T05:30:06;23.63;;;11.57;;
5167;SDS011;2603;48.918;8.980;2023-01-31T05:32:36;25.57;;;10.40;;
5167;SDS011;2603;48.918;8.980;2023-01-31T05:35:04;22.87;;;10.27;;
5167;SDS011;2603;48.918;8.980;2023-01-31T05:37:31;39.70;;;11.57;;
5167;SDS011;2603;48.918;8.980;2023-01-31T05:39:57;21.63;;;10.80;;
5167;SDS011;2603;48.918;8.980;2023-01-31T05:42:24;32.60;;;12.53;;
5167;SDS011;2603;48.918;8.980;2023-01-31T05:44:50;23.63;;;12.63;;
5167;SDS011;2603;48.918;8.980;2023-01-31T05:47:17;20.50;;;11.13;;
5167;SDS011;2603;48.918;8.980;2023-01-31T05:49:45;30.40;;;10.30;;
5167;SDS011;2603;48.918;8.980;2023-01-31T05:52:11;23.57;;;10.70;;
5167;SDS011;2603;48.918;8.980;2023-01-31T05:54:38;21.43;;;9.93;;
5167;SDS011;2603;48.918;8.980;2023-01-31T05:57:05;23.23;;;9.10;;
5167;SDS011;2603;48.918;8.980;2023-01-31T05:59:31;29.37;;;10.97;;
5167;SDS011;2603;48.918;8.980;2023-01-31T06:01:58;25.07;;;11.37;;
5167;SDS011;2603;48.918;8.980;2023-01-31T06:04:24;22.47;;;10.53;;
5167;SDS011;2603;48.918;8.980;2023-01-31T06:06:52;33.87;;;12.93;;
5167;SDS011;2603;48.918;8.980;2023-01-31T06:09:19;19.40;;;9.67;;
5167;SDS011;2603;48.918;8.980;2023-01-31T06:11:45;23.87;;;10.60;;
5167;SDS011;2603;48.918;8.980;2023-01-31T06:14:12;28.73;;;11.97;;
5167;SDS011;2603;48.918;8.980;2023-01-31T06:16:38;32.10;;;11.97;;
5167;SDS011;2603;48.918;8.980;2023-01-31T06:19:05;27.83;;;12.03;;
5167;SDS011;2603;48.918;8.980;2023-01-31T06:21:31;33.70;;;13.40;;
5167;SDS011;2603;48.918;8.980;2023-01-31T06:23:59;24.50;;;10.07;;
5167;SDS011;2603;48.918;8.980;2023-01-31T06:26:26;37.20;;;11.67;;
5167;SDS011;2603;48.918;8.980;2023-01-31T06:28:53;21.77;;;10.60;;
5167;SDS011;2603;48.918;8.980;2023-01-31T06:31:19;24.10;;;10.50;;
5167;SDS011;2603;48.918;8.980;2023-01-31T06:33:46;31.30;;;10.60;;
5167;SDS011;2603;48.918;8.980;2023-01-31T06:36:13;30.73;;;11.80;;
5167;SDS011;2603;48.918;8.980;2023-01-31T06:38:39;28.23;;;11.30;;
5167;SDS011;2603;48.918;8.980;2023-01-31T06:41:07;19.90;;;9.67;;
5167;SDS011;2603;48.918;8.980;2023-01-31T06:43:34;20.03;;;9.13;;
5167;SDS011;2603;48.918;8.980;2023-01-31T06:46:00;26.07;;;10.77;;
5167;SDS011;2603;48.918;8.980;2023-01-31T06:48:27;24.87;;;10.60;;
5167;SDS011;2603;48.918;8.980;2023-01-31T06:50:54;23.60;;;10.47;;
5167;SDS011;2603;48.918;8.980;2023-01-31T06:53:21;44.67;;;11.43;;
5167;SDS011;2603;48.918;8.980;2023-01-31T06:55:48;23.07;;;9.80;;
5167;SDS011;2603;48.918;8.980;2023-01-31T06:58:16;25.07;;;11.67;;
5167;SDS011;2603;48.918;8.980;2023-01-31T07:00:42;27.93;;;11.00;;
5167;SDS011;2603;48.918;8.980;2023-01-31T07:03:09;24.77;;;11.67;;
5167;SDS011;2603;48.918;8.980;2023-01-31T07:05:37;23.60;;;11.50;;
5167;SDS011;2603;48.918;8.980;2023-01-31T07:08:04;27.33;;;11.43;;
5167;SDS011;2603;48.918;8.980;2023-01-31T07:10:30;25.73;;;10.70;;
5167;SDS011;2603;48.918;8.980;2023-01-31T07:12:57;23.33;;;10.43;;
5167;SDS011;2603;48.918;8.980;2023-01-31T07:15:25;23.27;;;9.30;;
5167;SDS011;2603;48.918;8.980;2023-01-31T07:17:55;20.50;;;11.10;;
5167;SDS011;2603;48.918;8.980;2023-01-31T07:20:22;32.60;;;11.43;;
5167;SDS011;2603;48.918;8.980;2023-01-31T07:22:52;21.57;;;10.80;;
5167;SDS011;2603;48.918;8.980;2023-01-31T07:25:19;17.10;;;10.00;;
5167;SDS011;2603;48.918;8.980;2023-01-31T07:27:46;21.60;;;10.07;;
5167;SDS011;2603;48.918;8.980;2023-01-31T07:30:12;26.40;;;11.73;;
5167;SDS011;2603;48.918;8.980;2023-01-31T07:32:41;22.70;;;10.33;;
5167;SDS011;2603;48.918;8.980;2023-01-31T07:35:07;21.90;;;11.20;;
5167;SDS011;2603;48.918;8.980;2023-01-31T07:37:34;27.63;;;12.40;;
5167;SDS011;2603;48.918;8.980;2023-01-31T07:40:01;21.87;;;10.33;;
5167;SDS011;2603;48.918;8.980;2023-01-31T07:42:29;17.27;;;9.63;;
5167;SDS011;2603;48.918;8.980;2023-01-31T07:44:56;16.90;;;9.87;;
5167;SDS011;2603;48.918;8.980;2023-01-31T07:47:22;27.50;;;9.80;;
5167;SDS011;2603;48.918;8.980;2023-01-31T07:49:50;25.80;;;8.73;;
5167;SDS011;2603;48.918;8.980;2023-01-31T07:52:17;32.33;;;10.83;;
5167;SDS011;2603;48.918;8.980;2023-01-31T07:54:44;20.73;;;7.87;;
5167;SDS011;2603;48.918;8.980;2023-01-31T07:57:10;23.07;;;8.37;;
5167;SDS011;2603;48.918;8.980;2023-01-31T07:59:37;22.10;;;8.53;;
5167;SDS011;2603;48.918;8.980;2023-01-31T08:02:03;19.00;;;8.00;;
5167;SDS011;2603;48.918;8.980;2023-01-31T08:04:50;15.33;;;8.00;;
5167;SDS011;2603;48.918;8.980;2023-01-31T08:07:17;13.27;;;6.63;;
5167;SDS011;2603;48.918;8.980;2023-01-31T08:09:43;17.27;;;7.43;;
5167;SDS011;2603;48.918;8.980;2023-01-31T08:12:13;17.00;;;6.10;;
5167;SDS011;2603;48.918;8.980;2023-01-31T08:14:40;15.37;;;6.40;;
5167;SDS011;2603;48.918;8.980;2023-01-31T08:17:07;12.97;;;6.10;;
5167;SDS011;2603;48.918;8.980;2023-01-31T08:19:33;11.87;;;6.50;;
5167;SDS011;2603;48.918;8.980;2023-01-31T08:22:01;19.13;;;6.70;;
5167;SDS011;2603;48.918;8.980;2023-01-31T08:24:28;16.13;;;5.97;;
5167;SDS011;2603;48.918;8.980;2023-01-31T08:26:55;11.60;;;6.30;;
5167;SDS011;2603;48.918;8.980;2023-01-31T08:29:22;20.87;;;6.60;;
5167;SDS011;2603;48.918;8.980;2023-01-31T08:31:48;17.07;;;5.87;;
5167;SDS011;2603;48.918;8.980;2023-01-31T08:34:15;13.90;;;4.83;;
5167;SDS011;2603;48.918;8.980;2023-01-31T08:36:42;15.70;;;5.30;;
5167;SDS011;2603;48.918;8.980;2023-01-31T08:39:10;9.93;;;5.43;;
5167;SDS011;2603;48.918;8.980;2023-01-31T08:41:37;9.90;;;4.80;;
5167;SDS011;2603;48.918;8.980;2023-01-31T08:44:05;9.80;;;4.50;;
5167;SDS011;2603;48.918;8.980;2023-01-31T08:46:32;12.33;;;5.00;;
5167;SDS011;2603;48.918;8.980;2023-01-31T08:49:00;10.10;;;4.17;;
5167;SDS011;2603;48.918;8.980;2023-01-31T08:51:28;11.40;;;5.90;;
5167;SDS011;2603;48.918;8.980;2023-01-31T08:53:55;13.03;;;4.43;;
5167;SDS011;2603;48.918;8.980;2023-01-31T08:56:23;8.63;;;4.40;;
5167;SDS011;2603;48.918;8.980;2023-01-31T08:58:52;13.73;;;4.90;;
5167;SDS011;2603;48.918;8.980;2023-01-31T09:01:19;10.77;;;5.00;;
5167;SDS011;2603;48.918;8.980;2023-01-31T09:03:46;12.60;;;4.83;;
5167;SDS011;2603;48.918;8.980;2023-01-31T09:06:15;17.83;;;5.07;;
5167;SDS011;2603;48.918;8.980;2023-01-31T09:08:42;20.87;;;4.80;;
5167;SDS011;2603;48.918;8.980;2023-01-31T09:11:09;20.93;;;5.60;;
5167;SDS011;2603;48.918;8.980;2023-01-31T09:13:37;20.57;;;4.90;;
5167;SDS011;2603;48.918;8.980;2023-01-31T09:16:04;11.03;;;4.23;;
5167;SDS011;2603;48.918;8.980;2023-01-31T09:18:32;12.27;;;4.27;;
5167;SDS011;2603;48.918;8.980;2023-01-31T09:21:02;11.03;;;4.30;;
5167;SDS011;2603;48.918;8.980;2023-01-31T09:23:29;15.50;;;5.20;;
5167;SDS011;2603;48.918;8.980;2023-01-31T09:25:55;12.20;;;4.50;;
5167;SDS011;2603;48.918;8.980;2023-01-31T09:28:22;17.77;;;4.53;;
5167;SDS011;2603;48.918;8.980;2023-01-31T09:30:51;12.23;;;4.13;;
5167;SDS011;2603;48.918;8.980;2023-01-31T09:33:18;11.03;;;4.20;;
5167;SDS011;2603;48.918;8.980;2023-01-31T09:35:53;8.03;;;3.83;;
5167;SDS011;2603;48.918;8.980;2023-01-31T09:38:20;14.30;;;4.40;;
5167;SDS011;2603;48.918;8.980;2023-01-31T09:40:47;10.73;;;3.50;;
5167;SDS011;2603;48.918;8.980;2023-01-31T09:43:14;12.87;;;4.20;;
5167;SDS011;2603;48.918;8.980;2023-01-31T09:45:41;14.93;;;4.38;;
5167;SDS011;2603;48.918;8.980;2023-01-31T09:48:12;16.50;;;4.90;;
5167;SDS011;2603;48.918;8.980;2023-01-31T09:50:41;14.63;;;4.10;;
5167;SDS011;2603;48.918;8.980;2023-01-31T09:53:10;8.33;;;3.67;;
5167;SDS011;2603;48.918;8.980;2023-01-31T09:55:40;8.43;;;4.33;;
5167;SDS011;2603;48.918;8.980;2023-01-31T09:58:12;12.20;;;4.10;;
5167;SDS011;2603;48.918;8.980;2023-01-31T10:00:44;7.97;;;3.70;;
5167;SDS011;2603;48.918;8.980;2023-01-31T10:06:12;12.80;;;4.03;;
5167;SDS011;2603;48.918;8.980;2023-01-31T10:08:42;17.20;;;4.10;;
5167;SDS011;2603;48.918;8.980;2023-01-31T10:11:13;11.33;;;4.10;;
5167;SDS011;2603;48.918;8.980;2023-01-31T10:13:43;11.23;;;4.00;;
5167;SDS011;2603;48.918;8.980;2023-01-31T10:16:16;27.07;;;7.03;;
5167;SDS011;2603;48.918;8.980;2023-01-31T10:18:48;13.53;;;4.47;;
5167;SDS011;2603;48.918;8.980;2023-01-31T10:21:19;11.90;;;4.70;;
5167;SDS011;2603;48.918;8.980;2023-01-31T10:23:49;18.40;;;4.50;;
5167;SDS011;2603;48.918;8.980;2023-01-31T10:26:19;9.43;;;4.90;;
5167;SDS011;2603;48.918;8.980;2023-01-31T10:28:50;22.03;;;5.40;;
5167;SDS011;2603;48.918;8.980;2023-01-31T10:31:23;11.60;;;4.30;;
5167;SDS011;2603;48.918;8.980;2023-01-31T10:33:54;10.63;;;4.50;;
5167;SDS011;2603;48.918;8.980;2023-01-31T10:36:24;15.20;;;4.20;;
5167;SDS011;2603;48.918;8.980;2023-01-31T10:38:57;14.90;;;4.07;;
5167;SDS011;2603;48.918;8.980;2023-01-31T10:41:33;15.33;;;5.20;;
5167;SDS011;2603;48.918;8.980;2023-01-31T10:44:05;14.47;;;5.00;;
5167;SDS011;2603;48.918;8.980;2023-01-31T10:46:32;14.43;;;4.43;;
5167;SDS011;2603;48.918;8.980;2023-01-31T10:49:00;15.93;;;4.30;;
5167;SDS011;2603;48.918;8.980;2023-01-31T10:51:32;9.53;;;3.83;;
5167;SDS011;2603;48.918;8.980;2023-01-31T10:54:10;9.60;;;3.63;;
5167;SDS011;2603;48.918;8.980;2023-01-31T10:56:43;10.60;;;4.53;;
5167;SDS011;2603;48.918;8.980;2023-01-31T10:59:11;9.70;;;3.80;;
5167;SDS011;2603;48.918;8.980;2023-01-31T11:01:41;9.43;;;4.33;;
5167;SDS011;2603;48.918;8.980;2023-01-31T11:04:19;10.90;;;4.80;;
5167;SDS011;2603;48.918;8.980;2023-01-31T11:06:49;11.60;;;4.93;;
5167;SDS011;2603;48.918;8.980;2023-01-31T11:09:15;14.03;;;5.40;;
5167;SDS011;2603;48.918;8.980;2023-01-31T11:11:51;19.43;;;7.43;;
5167;SDS011;2603;48.918;8.980;2023-01-31T11:14:19;35.07;;;12.37;;
5167;SDS011;2603;48.918;8.980;2023-01-31T11:16:45;30.40;;;11.93;;
5167;SDS011;2603;48.918;8.980;2023-01-31T11:19:16;27.53;;;10.93;;
5167;SDS011;2603;48.918;8.980;2023-01-31T11:21:47;21.50;;;9.20;;
5167;SDS011;2603;48.918;8.980;2023-01-31T11:24:15;12.20;;;4.23;;
5167;SDS011;2603;48.918;8.980;2023-01-31T11:26:47;12.33;;;4.80;;
5167;SDS011;2603;48.918;8.980;2023-01-31T11:29:17;11.07;;;5.07;;
5167;SDS011;2603;48.918;8.980;2023-01-31T11:31:47;12.50;;;3.37;;
5167;SDS011;2603;48.918;8.980;2023-01-31T11:34:20;12.13;;;2.97;;
5167;SDS011;2603;48.918;8.980;2023-01-31T11:36:47;8.57;;;3.03;;
5167;SDS011;2603;48.918;8.980;2023-01-31T11:42:05;14.07;;;2.40;;
5167;SDS011;2603;48.918;8.980;2023-01-31T11:44:35;10.83;;;3.30;;
5167;SDS011;2603;48.918;8.980;2023-01-31T11:47:02;10.57;;;2.47;;
5167;SDS011;2603;48.918;8.980;2023-01-31T11:49:33;11.63;;;3.50;;
5167;SDS011;2603;48.918;8.980;2023-01-31T11:52:02;5.60;;;2.70;;
5167;SDS011;2603;48.918;8.980;2023-01-31T11:54:38;7.03;;;2.70;;
5167;SDS011;2603;48.918;8.980;2023-01-31T11:57:12;9.70;;;3.03;;
5167;SDS011;2603;48.918;8.980;2023-01-31T11:59:39;9.20;;;3.03;;
5167;SDS011;2603;48.918;8.980;2023-01-31T12:02:12;6.00;;;2.53;;
5167;SDS011;2603;48.918;8.980;2023-01-31T12:04:51;7.73;;;2.83;;
5167;SDS011;2603;48.918;8.980;2023-01-31T12:07:21;7.20;;;2.20;;
5167;SDS011;2603;48.918;8.980;2023-01-31T12:09:49;15.60;;;2.53;;
5167;SDS011;2603;48.918;8.980;2023-01-31T12:12:23;8.20;;;3.03;;
5167;SDS011;2603;48.918;8.980;2023-01-31T12:14:58;14.13;;;3.10;;
5167;SDS011;2603;48.918;8.980;2023-01-31T12:17:27;8.40;;;2.03;;
5167;SDS011;2603;48.918;8.980;2023-01-31T12:20:05;11.40;;;3.37;;
5167;SDS011;2603;48.918;8.980;2023-01-31T12:22:43;6.83;;;2.53;;
5167;SDS011;2603;48.918;8.980;2023-01-31T12:25:15;17.27;;;2.43;;
5167;SDS011;2603;48.918;8.980;2023-01-31T12:27:53;10.87;;;2.77;;
5167;SDS011;2603;48.918;8.980;2023-01-31T12:30:32;8.70;;;2.60;;
5167;SDS011;2603;48.918;8.980;2023-01-31T12:33:22;4.03;;;2.20;;
5167;SDS011;2603;48.918;8.980;2023-01-31T12:36:03;8.47;;;2.63;;
5167;SDS011;2603;48.918;8.980;2023-01-31T12:38:39;11.00;;;3.00;;
5167;SDS011;2603;48.918;8.980;2023-01-31T12:41:17;10.87;;;2.73;;
5167;SDS011;2603;48.918;8.980;2023-01-31T12:43:52;9.13;;;2.60;;
5167;SDS011;2603;48.918;8.980;2023-01-31T12:46:24;13.33;;;2.77;;
5167;SDS011;2603;48.918;8.980;2023-01-31T12:49:01;8.70;;;2.90;;
5167;SDS011;2603;48.918;8.980;2023-01-31T12:51:45;5.57;;;2.33;;
5167;SDS011;2603;48.918;8.980;2023-01-31T12:54:26;9.83;;;2.87;;
5167;SDS011;2603;48.918;8.980;2023-01-31T12:57:09;12.10;;;2.60;;
5167;SDS011;2603;48.918;8.980;2023-01-31T12:59:50;7.53;;;3.10;;
5167;SDS011;2603;48.918;8.980;2023-01-31T13:02:31;4.17;;;2.33;;
5167;SDS011;2603;48.918;8.980;2023-01-31T13:05:06;5.93;;;2.50;;
5167;SDS011;2603;48.918;8.980;2023-01-31T13:07:39;7.60;;;2.13;;
5167;SDS011;2603;48.918;8.980;2023-01-31T13:10:14;4.97;;;2.07;;
5167;SDS011;2603;48.918;8.980;2023-01-31T13:12:46;8.67;;;2.63;;
5167;SDS011;2603;48.918;8.980;2023-01-31T13:15:13;7.27;;;2.03;;
5167;SDS011;2603;48.918;8.980;2023-01-31T13:17:43;13.07;;;2.27;;
5167;SDS011;2603;48.918;8.980;2023-01-31T13:20:16;6.50;;;2.97;;
5167;SDS011;2603;48.918;8.980;2023-01-31T13:22:48;9.13;;;2.50;;
5167;SDS011;2603;48.918;8.980;2023-01-31T13:25:19;8.70;;;2.87;;
5167;SDS011;2603;48.918;8.980;2023-01-31T13:27:48;10.30;;;2.40;;
5167;SDS011;2603;48.918;8.980;2023-01-31T13:30:20;8.03;;;3.07;;
5167;SDS011;2603;48.918;8.980;2023-01-31T13:32:49;9.17;;;2.87;;
5167;SDS011;2603;48.918;8.980;2023-01-31T13:35:19;5.57;;;1.90;;
5167;SDS011;2603;48.918;8.980;2023-01-31T13:37:49;5.10;;;2.20;;
5167;SDS011;2603;48.918;8.980;2023-01-31T13:40:19;9.80;;;3.23;;
5167;SDS011;2603;48.918;8.980;2023-01-31T13:42:46;5.83;;;2.53;;
5167;SDS011;2603;48.918;8.980;2023-01-31T13:45:18;7.60;;;3.57;;
5167;SDS011;2603;48.918;8.980;2023-01-31T13:47:48;4.33;;;2.27;;
5167;SDS011;2603;48.918;8.980;2023-01-31T13:50:20;5.40;;;1.90;;
5167;SDS011;2603;48.918;8.980;2023-01-31T13:52:54;7.10;;;2.20;;
5167;SDS011;2603;48.918;8.980;2023-01-31T13:55:25;14.90;;;3.43;;
5167;SDS011;2603;48.918;8.980;2023-01-31T13:57:55;10.10;;;2.50;;
5167;SDS011;2603;48.918;8.980;2023-01-31T14:00:29;4.80;;;2.50;;
5167;SDS011;2603;48.918;8.980;2023-01-31T14:03:03;5.10;;;2.90;;
5167;SDS011;2603;48.918;8.980;2023-01-31T14:05:51;8.77;;;2.77;;
5167;SDS011;2603;48.918;8.980;2023-01-31T14:08:37;6.30;;;2.30;;
5167;SDS011;2603;48.918;8.980;2023-01-31T14:14:09;13.67;;;3.30;;
5167;SDS011;2603;48.918;8.980;2023-01-31T14:16:43;10.47;;;3.00;;
5167;SDS011;2603;48.918;8.980;2023-01-31T14:22:02;10.33;;;3.00;;
5167;SDS011;2603;48.918;8.980;2023-01-31T14:27:33;11.50;;;4.07;;
5167;SDS011;2603;48.918;8.980;2023-01-31T14:30:21;5.07;;;3.07;;
5167;SDS011;2603;48.918;8.980;2023-01-31T14:32:57;7.30;;;3.30;;
5167;SDS011;2603;48.918;8.980;2023-01-31T14:35:32;7.77;;;3.47;;
5167;SDS011;2603;48.918;8.980;2023-01-31T14:38:07;8.50;;;2.97;;
5167;SDS011;2603;48.918;8.980;2023-01-31T14:40:39;3.70;;;2.37;;
5167;SDS011;2603;48.918;8.980;2023-01-31T14:43:14;6.33;;;3.63;;
5167;SDS011;2603;48.918;8.980;2023-01-31T14:45:50;14.73;;;4.37;;
5167;SDS011;2603;48.918;8.980;2023-01-31T14:48:35;8.53;;;2.87;;
5167;SDS011;2603;48.918;8.980;2023-01-31T14:51:11;8.70;;;3.53;;
5167;SDS011;2603;48.918;8.980;2023-01-31T14:53:56;9.53;;;5.03;;
5167;SDS011;2603;48.918;8.980;2023-01-31T14:56:35;10.40;;;3.63;;
5167;SDS011;2603;48.918;8.980;2023-01-31T14:59:23;6.80;;;3.50;;
5167;SDS011;2603;48.918;8.980;2023-01-31T15:01:52;9.63;;;3.70;;
5167;SDS011;2603;48.918;8.980;2023-01-31T15:04:20;11.17;;;4.00;;
5167;SDS011;2603;48.918;8.980;2023-01-31T15:06:48;11.23;;;3.10;;
5167;SDS011;2603;48.918;8.980;2023-01-31T15:09:16;6.90;;;3.33;;
5167;SDS011;2603;48.918;8.980;2023-01-31T15:11:53;8.47;;;2.60;;
5167;SDS011;2603;48.918;8.980;2023-01-31T15:14:24;5.93;;;2.97;;
5167;SDS011;2603;48.918;8.980;2023-01-31T15:16:56;9.53;;;2.57;;
5167;SDS011;2603;48.918;8.980;2023-01-31T15:19:24;13.73;;;3.73;;
5167;SDS011;2603;48.918;8.980;2023-01-31T15:21:54;4.00;;;2.50;;
5167;SDS011;2603;48.918;8.980;2023-01-31T15:24:23;16.47;;;3.57;;
5167;SDS011;2603;48.918;8.980;2023-01-31T15:26:58;8.77;;;3.70;;
5167;SDS011;2603;48.918;8.980;2023-01-31T15:29:28;12.10;;;3.87;;
5167;SDS011;2603;48.918;8.980;2023-01-31T15:31:59;13.17;;;4.03;;
5167;SDS011;2603;48.918;8.980;2023-01-31T15:34:30;5.27;;;2.90;;
5167;SDS011;2603;48.918;8.980;2023-01-31T15:37:01;11.30;;;3.17;;
5167;SDS011;2603;48.918;8.980;2023-01-31T15:39:31;8.73;;;2.80;;
5167;SDS011;2603;48.918;8.980;2023-01-31T15:42:14;10.40;;;3.43;;
5167;SDS011;2603;48.918;8.980;2023-01-31T15:44:46;14.73;;;3.60;;